createdAt,value
2022-11-18T00:00:37.013Z,13.10
2022-11-18T00:03:03.573Z,12.47
2022-11-18T00:05:30.061Z,13.60
2022-11-18T00:07:56.636Z,12.07
2022-11-18T00:10:23.204Z,12.93
2022-11-18T00:13:08.361Z,12.13
2022-11-18T00:15:34.864Z,12.13
2022-11-18T00:18:01.373Z,12.03
2022-11-18T00:20:27.890Z,11.97
2022-11-18T00:22:54.477Z,14.53
2022-11-18T00:25:20.952Z,13.67
2022-11-18T00:27:47.499Z,13.70
2022-11-18T00:30:14.052Z,13.63
2022-11-18T00:32:40.585Z,12.53
2022-11-18T00:35:07.552Z,12.73
2022-11-18T00:37:34.272Z,13.93
2022-11-18T00:40:00.802Z,12.50
2022-11-18T00:42:45.966Z,13.00
2022-11-18T00:45:12.486Z,12.97
2022-11-18T00:47:39.001Z,12.07
2022-11-18T00:50:05.764Z,12.43
2022-11-18T00:52:32.372Z,12.37
2022-11-18T00:54:58.923Z,13.60
2022-11-18T00:57:25.415Z,13.83
2022-11-18T00:59:51.959Z,14.43
2022-11-18T01:02:18.494Z,12.00
2022-11-18T01:04:44.998Z,13.37
2022-11-18T01:07:11.654Z,13.03
2022-11-18T01:09:38.282Z,15.47
2022-11-18T01:12:23.166Z,13.43
2022-11-18T01:14:49.703Z,13.97
2022-11-18T01:17:16.209Z,14.20
2022-11-18T01:19:42.755Z,13.53
2022-11-18T01:22:09.258Z,13.40
2022-11-18T01:24:35.851Z,13.97
2022-11-18T01:27:02.839Z,15.93
2022-11-18T01:29:29.427Z,13.80
2022-11-18T01:32:22.765Z,13.93
2022-11-18T01:34:42.564Z,13.50
2022-11-18T01:37:09.094Z,14.20
2022-11-18T01:39:35.708Z,11.93
2022-11-18T01:42:02.242Z,13.57
2022-11-18T01:44:47.433Z,14.50
2022-11-18T01:47:14.017Z,12.60
2022-11-18T01:49:40.740Z,14.20
2022-11-18T01:52:07.833Z,13.87
2022-11-18T01:54:36.159Z,14.53
2022-11-18T01:57:05.493Z,12.80
2022-11-18T01:59:33.465Z,13.90
2022-11-18T02:02:01.472Z,13.77
2022-11-18T02:04:28.072Z,15.43
2022-11-18T02:06:55.347Z,15.53
2022-11-18T02:09:22.132Z,16.17
2022-11-18T02:11:51.720Z,17.07
2022-11-18T02:14:19.790Z,17.60
2022-11-18T02:16:55.422Z,18.37
2022-11-18T02:19:21.945Z,19.73
2022-11-18T02:21:51.501Z,19.77
2022-11-18T02:24:20.840Z,19.97
2022-11-18T02:27:07.610Z,20.00
2022-11-18T02:29:39.516Z,16.80
2022-11-18T02:32:11.833Z,16.90
2022-11-18T02:35:04.531Z,20.47
2022-11-18T02:37:33.865Z,19.77
2022-11-18T02:40:22.421Z,21.73
2022-11-18T02:42:52.231Z,19.80
2022-11-18T02:45:19.170Z,21.27
2022-11-18T02:47:46.923Z,18.47
2022-11-18T02:50:15.974Z,19.50
2022-11-18T02:52:42.984Z,19.17
2022-11-18T02:55:12.037Z,21.37
2022-11-18T02:57:40.130Z,17.30
2022-11-18T03:00:06.985Z,18.17
2022-11-18T03:02:44.604Z,20.17
2022-11-18T03:05:24.171Z,18.60
2022-11-18T03:07:55.399Z,21.53
2022-11-18T03:10:23.795Z,18.67
2022-11-18T03:12:58.345Z,20.30
2022-11-18T03:15:33.378Z,20.87
2022-11-18T03:17:59.873Z,19.03
2022-11-18T03:20:31.466Z,21.87
2022-11-18T03:23:09.659Z,21.63
2022-11-18T03:25:42.255Z,21.80
2022-11-18T03:28:14.606Z,23.03
2022-11-18T03:30:46.619Z,22.93
2022-11-18T03:33:17.506Z,21.93
2022-11-18T03:35:45.708Z,26.23
2022-11-18T03:38:14.682Z,23.33
2022-11-18T03:40:43.427Z,22.67
2022-11-18T03:43:11.676Z,22.37
2022-11-18T03:45:41.906Z,27.87
2022-11-18T03:48:14.642Z,25.53
2022-11-18T03:50:44.843Z,26.83
2022-11-18T03:53:12.132Z,25.77
2022-11-18T03:55:41.693Z,25.50
2022-11-18T03:58:17.274Z,24.03
2022-11-18T04:00:46.139Z,27.07
2022-11-18T04:03:13.008Z,25.07
2022-11-18T04:05:40.932Z,26.75
2022-11-18T04:08:16.695Z,24.23
2022-11-18T04:10:48.031Z,23.93
2022-11-18T04:13:32.681Z,22.57
2022-11-18T04:15:59.376Z,27.47
2022-11-18T04:18:25.961Z,27.60
2022-11-18T04:20:52.450Z,25.57
2022-11-18T04:23:18.918Z,30.87
2022-11-18T04:25:45.761Z,28.00
2022-11-18T04:28:12.253Z,30.30
2022-11-18T04:30:38.886Z,29.83
2022-11-18T04:33:05.462Z,30.93
2022-11-18T04:35:31.952Z,29.03
2022-11-18T04:37:58.517Z,34.17
2022-11-18T04:40:25.004Z,29.87
2022-11-18T04:42:51.521Z,33.37
2022-11-18T04:45:18.063Z,30.20
2022-11-18T04:47:44.544Z,30.97
2022-11-18T04:50:11.146Z,30.70
2022-11-18T04:52:37.652Z,29.40
2022-11-18T04:55:04.281Z,31.10
2022-11-18T04:57:30.773Z,27.40
2022-11-18T04:59:57.284Z,30.47
2022-11-18T05:02:23.787Z,27.17
2022-11-18T05:04:50.300Z,29.73
2022-11-18T05:07:16.950Z,28.20
2022-11-18T05:09:43.633Z,28.67
2022-11-18T05:12:32.480Z,35.60
2022-11-18T05:14:59.171Z,29.73
2022-11-18T05:17:25.702Z,33.03
2022-11-18T05:19:52.282Z,34.97
2022-11-18T05:22:18.822Z,35.40
2022-11-18T05:24:45.406Z,33.73
2022-11-18T05:27:12.583Z,36.33
2022-11-18T05:29:39.066Z,34.47
2022-11-18T05:32:05.750Z,37.00
2022-11-18T05:34:32.405Z,35.20
2022-11-18T05:36:59.627Z,34.97
2022-11-18T05:39:26.191Z,43.63
2022-11-18T05:42:11.436Z,33.93
2022-11-18T05:44:38.047Z,35.30
2022-11-18T05:47:04.557Z,39.07
2022-11-18T05:49:31.287Z,29.37
2022-11-18T05:51:57.826Z,34.87
2022-11-18T05:54:24.364Z,34.70
2022-11-18T05:56:51.323Z,37.70
2022-11-18T05:59:18.188Z,35.83
2022-11-18T06:01:44.922Z,39.30
2022-11-18T06:04:15.393Z,34.37
2022-11-18T06:06:42.331Z,36.40
2022-11-18T06:09:10.035Z,33.90
2022-11-18T06:11:40.250Z,51.23
2022-11-18T06:14:09.144Z,50.00
2022-11-18T06:16:40.721Z,199.73
2022-11-18T06:19:07.704Z,45.83
2022-11-18T06:21:34.355Z,33.20
2022-11-18T06:24:02.474Z,33.87
2022-11-18T06:26:29.084Z,30.77
2022-11-18T06:28:56.087Z,32.50
2022-11-18T06:31:22.618Z,33.00
2022-11-18T06:33:49.168Z,32.97
2022-11-18T06:36:15.663Z,33.27
2022-11-18T06:38:42.206Z,35.93
2022-11-18T06:41:08.779Z,36.20
2022-11-18T06:43:41.899Z,34.87
2022-11-18T06:46:31.228Z,38.50
2022-11-18T06:48:58.155Z,36.60
2022-11-18T06:51:25.037Z,40.00
2022-11-18T06:53:51.775Z,40.67
2022-11-18T06:56:19.267Z,37.03
2022-11-18T06:58:46.019Z,39.63
2022-11-18T07:01:21.684Z,39.13
2022-11-18T07:03:48.319Z,37.70
2022-11-18T07:06:16.005Z,39.73
2022-11-18T07:08:43.023Z,43.67
2022-11-18T07:11:11.162Z,39.20
2022-11-18T07:13:43.251Z,47.57
2022-11-18T07:16:36.830Z,43.13
2022-11-18T07:19:08.222Z,40.50
2022-11-18T07:21:34.774Z,42.77
2022-11-18T07:24:01.278Z,38.87
2022-11-18T07:26:27.906Z,41.30
2022-11-18T07:28:54.374Z,40.97
2022-11-18T07:31:20.953Z,39.57
2022-11-18T07:33:48.194Z,38.40
2022-11-18T07:36:16.114Z,40.67
2022-11-18T07:38:42.665Z,39.73
2022-11-18T07:41:35.669Z,42.30
2022-11-18T07:44:02.969Z,42.20
2022-11-18T07:46:29.525Z,37.03
2022-11-18T07:48:57.026Z,37.87
2022-11-18T07:51:25.704Z,38.30
2022-11-18T07:53:52.237Z,34.70
2022-11-18T07:56:19.034Z,35.80
2022-11-18T07:58:45.631Z,34.67
2022-11-18T08:01:13.694Z,32.97
2022-11-18T08:03:40.519Z,34.73
2022-11-18T08:06:07.855Z,32.93
2022-11-18T08:08:34.555Z,33.23
2022-11-18T08:11:01.990Z,38.03
2022-11-18T08:13:28.908Z,33.53
2022-11-18T08:15:55.921Z,36.00
2022-11-18T08:18:22.757Z,32.43
2022-11-18T08:20:49.276Z,33.83
2022-11-18T08:23:16.135Z,35.70
2022-11-18T08:25:43.464Z,33.53
2022-11-18T08:28:10.468Z,30.80
2022-11-18T08:30:37.043Z,31.07
2022-11-18T08:33:04.589Z,36.57
2022-11-18T08:35:31.700Z,31.80
2022-11-18T08:37:58.463Z,31.80
2022-11-18T08:40:25.042Z,37.67
2022-11-18T08:42:51.663Z,31.57
2022-11-18T08:45:18.283Z,33.27
2022-11-18T08:47:44.810Z,36.17
2022-11-18T08:50:11.680Z,33.60
2022-11-18T08:52:38.392Z,48.20
2022-11-18T08:55:05.081Z,31.83
2022-11-18T08:57:31.678Z,31.63
2022-11-18T08:59:58.159Z,32.83
2022-11-18T09:02:24.724Z,31.03
2022-11-18T09:04:51.822Z,31.87
2022-11-18T09:07:21.888Z,31.27
2022-11-18T09:09:48.449Z,30.37
2022-11-18T09:12:15.292Z,32.77
2022-11-18T09:17:29.408Z,28.33
2022-11-18T09:19:55.941Z,26.77
2022-11-18T09:22:22.484Z,28.07
2022-11-18T09:24:49.121Z,26.83
2022-11-18T09:27:17.518Z,26.13
2022-11-18T09:29:45.013Z,26.77
2022-11-18T09:32:11.549Z,25.63
2022-11-18T09:34:38.076Z,27.63
2022-11-18T09:37:06.660Z,27.53
2022-11-18T09:39:39.627Z,29.03
2022-11-18T09:42:18.275Z,28.53
2022-11-18T09:44:49.453Z,29.00
2022-11-18T09:47:22.965Z,26.77
2022-11-18T09:49:49.619Z,27.10
2022-11-18T09:52:21.141Z,27.60
2022-11-18T09:54:47.756Z,27.70
2022-11-18T09:57:19.297Z,28.03
2022-11-18T09:59:46.490Z,25.00
2022-11-18T10:02:30.504Z,28.70
2022-11-18T10:04:59.894Z,35.60
2022-11-18T10:07:35.561Z,26.00
2022-11-18T10:10:03.318Z,30.67
2022-11-18T10:12:44.982Z,28.00
2022-11-18T10:15:11.458Z,29.17
2022-11-18T10:17:56.476Z,27.40
2022-11-18T10:20:41.619Z,28.47
2022-11-18T10:23:21.027Z,27.40
2022-11-18T10:25:47.652Z,30.30
2022-11-18T10:28:32.263Z,30.20
2022-11-18T10:31:08.948Z,26.43
2022-11-18T10:33:36.026Z,27.37
2022-11-18T10:36:11.084Z,32.53
2022-11-18T10:38:37.801Z,24.20
2022-11-18T10:41:12.846Z,28.17
2022-11-18T10:43:43.600Z,30.43
2022-11-18T10:46:17.291Z,27.47
2022-11-18T10:48:44.140Z,28.20
2022-11-18T10:51:20.991Z,26.27
2022-11-18T10:53:47.510Z,29.10
2022-11-18T10:56:17.429Z,30.03
2022-11-18T10:58:46.252Z,25.50
2022-11-18T11:01:25.323Z,32.87
2022-11-18T11:04:10.985Z,26.27
2022-11-18T11:06:38.266Z,23.53
2022-11-18T11:09:04.901Z,25.53
2022-11-18T11:11:35.987Z,22.70
2022-11-18T11:14:21.599Z,24.97
2022-11-18T11:16:57.342Z,22.63
2022-11-18T11:19:25.490Z,26.30
2022-11-18T11:21:52.232Z,26.13
2022-11-18T11:24:19.227Z,46.73
2022-11-18T11:30:07.708Z,36.23
2022-11-18T11:32:53.005Z,23.73
2022-11-18T11:35:30.024Z,23.43
2022-11-18T11:38:15.021Z,40.37
2022-11-18T11:40:51.001Z,32.83
2022-11-18T11:43:20.364Z,29.87
2022-11-18T11:46:05.388Z,31.47
2022-11-18T11:48:41.053Z,26.67
2022-11-18T11:51:14.385Z,25.43
2022-11-18T11:53:51.766Z,23.93
2022-11-18T11:56:33.605Z,25.10
2022-11-18T11:59:15.353Z,25.53
2022-11-18T12:02:00.845Z,23.80
2022-11-18T12:04:34.652Z,31.80
2022-11-18T12:07:02.651Z,27.57
2022-11-18T12:09:32.239Z,25.90
2022-11-18T12:11:58.695Z,24.27
2022-11-18T12:14:28.349Z,30.07
2022-11-18T12:16:54.825Z,28.53
2022-11-18T12:19:22.851Z,25.87
2022-11-18T12:21:49.403Z,25.57
2022-11-18T12:24:25.908Z,24.53
2022-11-18T12:26:52.977Z,23.77
2022-11-18T12:29:19.752Z,25.37
2022-11-18T12:31:50.611Z,27.80
2022-11-18T12:34:26.224Z,24.40
2022-11-18T12:36:53.385Z,25.40
2022-11-18T12:39:20.302Z,34.53
2022-11-18T12:42:05.219Z,26.83
2022-11-18T12:44:31.762Z,25.13
2022-11-18T12:46:59.154Z,31.23
2022-11-18T12:49:25.647Z,99.87
2022-11-18T12:51:59.038Z,42.63
2022-11-18T12:54:25.555Z,23.83
2022-11-18T12:56:52.468Z,27.13
2022-11-18T12:59:26.676Z,26.20
2022-11-18T13:02:03.587Z,29.03
2022-11-18T13:04:30.221Z,29.97
2022-11-18T13:07:00.248Z,26.37
2022-11-18T13:09:29.094Z,26.20
2022-11-18T13:12:00.576Z,31.23
2022-11-18T13:14:51.032Z,32.67
2022-11-18T13:17:45.566Z,26.00
2022-11-18T13:20:23.038Z,24.77
2022-11-18T13:23:15.848Z,27.57
2022-11-18T13:25:45.153Z,26.23
2022-11-18T13:28:11.745Z,26.87
2022-11-18T13:30:44.183Z,27.50
2022-11-18T13:33:11.157Z,28.07
2022-11-18T13:35:39.815Z,26.93
2022-11-18T13:38:10.176Z,31.70
2022-11-18T13:41:03.840Z,25.30
2022-11-18T13:43:31.663Z,29.67
2022-11-18T13:46:00.152Z,28.13
2022-11-18T13:48:28.490Z,25.60
2022-11-18T13:50:56.130Z,23.03
2022-11-18T13:53:38.066Z,23.87
2022-11-18T13:56:06.282Z,23.33
2022-11-18T13:58:40.079Z,24.57
2022-11-18T14:01:43.354Z,19.90
2022-11-18T14:04:31.781Z,18.70
2022-11-18T14:07:15.661Z,18.90
2022-11-18T14:09:55.759Z,18.23
2022-11-18T14:12:24.931Z,17.57
2022-11-18T14:14:51.796Z,17.20
2022-11-18T14:17:22.170Z,16.37
2022-11-18T14:19:49.707Z,24.93
2022-11-18T14:22:18.384Z,19.90
2022-11-18T14:24:53.432Z,16.83
2022-11-18T14:27:36.523Z,14.63
2022-11-18T14:30:23.073Z,16.23
2022-11-18T14:33:04.621Z,9.93
2022-11-18T14:35:34.680Z,14.77
2022-11-18T14:38:35.464Z,15.27
2022-11-18T14:40:58.656Z,10.10
2022-11-18T14:43:25.424Z,14.47
2022-11-18T14:45:57.581Z,19.17
2022-11-18T14:51:12.723Z,12.70
2022-11-18T14:53:39.256Z,11.17
2022-11-18T14:56:11.608Z,9.80
2022-11-18T14:58:38.111Z,16.97
2022-11-18T15:00:27.168Z,18.33
2022-11-18T15:01:04.675Z,7.73
2022-11-18T15:03:31.289Z,6.70
2022-11-18T15:05:57.857Z,6.73
2022-11-18T15:08:24.351Z,9.67
2022-11-18T15:10:50.930Z,7.17
2022-11-18T15:13:17.412Z,7.67
2022-11-18T15:15:43.901Z,6.97
2022-11-18T15:18:10.435Z,8.33
2022-11-18T15:20:36.937Z,6.70
2022-11-18T15:23:03.499Z,7.33
2022-11-18T15:25:30.022Z,10.70
2022-11-18T15:27:56.510Z,6.40
2022-11-18T15:30:24.135Z,6.40
2022-11-18T15:32:50.620Z,6.50
2022-11-18T15:35:17.192Z,6.67
2022-11-18T15:37:43.696Z,5.90
2022-11-18T15:40:11.098Z,6.50
2022-11-18T15:42:47.323Z,6.20
2022-11-18T15:45:17.158Z,6.23
2022-11-18T15:47:43.717Z,6.50
2022-11-18T15:50:10.390Z,47.00
2022-11-18T15:52:36.896Z,20.13
2022-11-18T15:55:07.774Z,13.57
2022-11-18T15:57:34.666Z,7.30
2022-11-18T16:00:01.433Z,8.50
2022-11-18T16:02:27.911Z,6.47
2022-11-18T16:04:54.412Z,6.33
2022-11-18T16:07:21.039Z,9.60
2022-11-18T16:10:06.339Z,6.80
2022-11-18T16:12:48.088Z,7.77
2022-11-18T16:15:34.136Z,6.00
2022-11-18T16:18:02.610Z,5.97
2022-11-18T16:20:29.149Z,6.77
2022-11-18T16:22:56.388Z,6.13
2022-11-18T16:25:23.398Z,5.93
2022-11-18T16:27:50.012Z,5.70
2022-11-18T16:30:35.351Z,5.70
2022-11-18T16:33:02.010Z,6.10
2022-11-18T16:35:28.563Z,8.97
2022-11-18T16:37:55.201Z,6.83
2022-11-18T16:40:21.731Z,9.57
2022-11-18T16:42:49.389Z,6.60
2022-11-18T16:45:16.274Z,6.30
2022-11-18T16:47:43.329Z,5.80
2022-11-18T16:50:09.918Z,5.47
2022-11-18T16:52:36.430Z,6.03
2022-11-18T16:55:03.018Z,6.43
2022-11-18T16:57:31.199Z,8.27
2022-11-18T16:59:57.689Z,9.97
2022-11-18T17:02:24.224Z,7.27
2022-11-18T17:04:50.779Z,7.37
2022-11-18T17:07:20.625Z,6.17
2022-11-18T17:09:47.242Z,5.83
2022-11-18T17:12:13.714Z,5.93
2022-11-18T17:14:40.321Z,6.70
2022-11-18T17:17:07.313Z,6.20
2022-11-18T17:19:33.808Z,6.67
2022-11-18T17:22:00.308Z,6.33
2022-11-18T17:24:27.071Z,6.10
2022-11-18T17:26:53.620Z,7.40
2022-11-18T17:29:20.609Z,6.37
2022-11-18T17:31:47.568Z,6.27
2022-11-18T17:34:14.733Z,7.83
2022-11-18T17:36:41.693Z,7.37
2022-11-18T17:39:10.561Z,8.17
2022-11-18T17:41:55.796Z,5.97
2022-11-18T17:44:22.334Z,6.67
2022-11-18T17:46:49.359Z,8.87
2022-11-18T17:49:18.030Z,6.67
2022-11-18T17:51:46.169Z,7.03
2022-11-18T17:54:13.335Z,6.23
2022-11-18T17:56:40.036Z,6.63
2022-11-18T17:59:06.560Z,6.07
2022-11-18T18:01:33.129Z,7.40
2022-11-18T18:03:59.762Z,6.30
2022-11-18T18:06:27.012Z,5.87
2022-11-18T18:08:56.940Z,7.20
2022-11-18T18:11:23.714Z,10.50
2022-11-18T18:14:08.944Z,9.17
2022-11-18T18:16:35.530Z,6.93
2022-11-18T18:19:03.180Z,6.13
2022-11-18T18:21:29.713Z,7.53
2022-11-18T18:23:56.774Z,6.23
2022-11-18T18:26:29.741Z,6.07
2022-11-18T18:28:58.313Z,7.13
2022-11-18T18:31:24.846Z,6.50
2022-11-18T18:33:51.383Z,5.87
2022-11-18T18:36:18.802Z,6.53
2022-11-18T18:38:45.472Z,6.63
2022-11-18T18:41:13.149Z,5.83
2022-11-18T18:43:39.938Z,6.50
2022-11-18T18:46:26.296Z,5.83
2022-11-18T18:48:52.758Z,6.10
2022-11-18T18:51:19.271Z,5.90
2022-11-18T18:53:45.843Z,5.23
2022-11-18T18:56:13.598Z,5.50
2022-11-18T18:58:40.116Z,6.70
2022-11-18T19:01:07.722Z,5.37
2022-11-18T19:03:34.522Z,6.20
2022-11-18T19:06:41.456Z,6.10
2022-11-18T19:08:48.476Z,5.87
2022-11-18T19:11:34.226Z,5.57
2022-11-18T19:14:02.022Z,7.00
2022-11-18T19:16:28.624Z,5.10
2022-11-18T19:18:55.218Z,6.40
2022-11-18T19:21:21.809Z,6.13
2022-11-18T19:23:48.551Z,6.13
2022-11-18T19:26:15.070Z,5.77
2022-11-18T19:28:41.916Z,5.53
2022-11-18T19:31:08.480Z,6.93
2022-11-18T19:33:34.987Z,5.77
2022-11-18T19:36:05.542Z,7.50
2022-11-18T19:38:34.671Z,6.70
2022-11-18T19:41:11.792Z,6.63
2022-11-18T19:43:38.748Z,6.30
2022-11-18T19:46:05.773Z,7.07
2022-11-18T19:48:32.618Z,9.10
2022-11-18T19:51:06.483Z,6.17
2022-11-18T19:53:35.199Z,6.83
2022-11-18T19:56:03.164Z,7.17
2022-11-18T19:58:33.602Z,7.83
2022-11-18T20:01:29.352Z,7.43
2022-11-18T20:04:01.793Z,6.50
2022-11-18T20:06:28.388Z,7.00
2022-11-18T20:08:55.908Z,7.00
2022-11-18T20:11:23.364Z,7.00
2022-11-18T20:13:49.958Z,10.40
2022-11-18T20:16:18.832Z,9.03
2022-11-18T20:18:49.363Z,7.80
2022-11-18T20:21:19.995Z,7.90
2022-11-18T20:23:47.423Z,10.43
2022-11-18T20:26:15.063Z,8.20
2022-11-18T20:28:42.429Z,7.33
2022-11-18T20:31:10.367Z,7.20
2022-11-18T20:33:37.974Z,7.87
2022-11-18T20:36:14.747Z,7.00
2022-11-18T20:38:41.409Z,8.17
2022-11-18T20:41:11.663Z,7.10
2022-11-18T20:43:38.777Z,9.03
2022-11-18T20:46:07.576Z,6.83
2022-11-18T20:48:34.532Z,6.97
2022-11-18T20:51:04.683Z,7.50
2022-11-18T20:53:31.293Z,7.23
2022-11-18T20:55:58.203Z,9.20
2022-11-18T20:58:24.865Z,8.30
2022-11-18T21:00:51.463Z,8.13
2022-11-18T21:03:20.329Z,8.53
2022-11-18T21:05:47.091Z,9.60
2022-11-18T21:08:13.822Z,6.80
2022-11-18T21:10:41.633Z,8.77
2022-11-18T21:13:26.870Z,7.70
2022-11-18T21:15:53.354Z,9.07
2022-11-18T21:18:19.893Z,8.30
2022-11-18T21:21:04.742Z,7.90
2022-11-18T21:23:31.405Z,8.07
2022-11-18T21:25:57.914Z,9.73
2022-11-18T21:28:26.591Z,8.67
2022-11-18T21:30:53.102Z,8.77
2022-11-18T21:33:19.607Z,7.43
2022-11-18T21:35:46.174Z,8.67
2022-11-18T21:38:12.610Z,8.00
2022-11-18T21:40:39.076Z,9.73
2022-11-18T21:43:05.564Z,11.80
2022-11-18T21:45:32.024Z,8.23
2022-11-18T21:47:58.494Z,10.37
2022-11-18T21:50:24.990Z,8.40
2022-11-18T21:52:51.575Z,9.33
2022-11-18T21:55:18.048Z,8.73
2022-11-18T21:57:44.569Z,10.30
2022-11-18T22:00:11.436Z,10.00
2022-11-18T22:02:38.263Z,10.83
2022-11-18T22:05:07.068Z,7.77
2022-11-18T22:07:33.946Z,7.93
2022-11-18T22:10:00.593Z,9.10
2022-11-18T22:12:27.112Z,6.93
2022-11-18T22:14:53.576Z,7.63
2022-11-18T22:17:20.117Z,6.27
2022-11-18T22:19:46.598Z,7.33
2022-11-18T22:22:13.094Z,6.93
2022-11-18T22:24:39.731Z,7.00
2022-11-18T22:27:11.206Z,7.72
2022-11-18T22:29:38.106Z,10.90
2022-11-18T22:32:04.745Z,6.90
2022-11-18T22:34:31.231Z,7.85
2022-11-18T22:36:57.821Z,8.90
2022-11-18T22:39:24.358Z,7.47
2022-11-18T22:42:09.359Z,7.33
2022-11-18T22:44:35.912Z,9.13
2022-11-18T22:47:02.474Z,8.00
2022-11-18T22:49:28.989Z,8.20
2022-11-18T22:51:55.518Z,7.63
2022-11-18T22:54:38.447Z,11.73
2022-11-18T22:57:06.058Z,7.87
2022-11-18T22:59:32.565Z,7.93
2022-11-18T23:01:59.325Z,9.23
2022-11-18T23:04:25.810Z,8.37
2022-11-18T23:06:52.339Z,8.67
2022-11-18T23:09:19.194Z,8.03
2022-11-18T23:12:04.532Z,7.50
2022-11-18T23:14:31.515Z,10.30
2022-11-18T23:16:58.058Z,8.63
2022-11-18T23:19:24.844Z,9.33
2022-11-18T23:21:51.460Z,9.70
2022-11-18T23:24:18.863Z,8.80
2022-11-18T23:26:45.846Z,11.67
2022-11-18T23:29:13.279Z,30.17
2022-11-18T23:31:43.892Z,16.27
2022-11-18T23:34:14.180Z,15.45
2022-11-18T23:36:40.943Z,18.90
2022-11-18T23:39:07.728Z,13.00
2022-11-18T23:41:34.291Z,8.80
2022-11-18T23:44:00.801Z,7.57
2022-11-18T23:46:27.748Z,7.53
2022-11-18T23:48:54.543Z,8.43
2022-11-18T23:51:22.015Z,9.47
2022-11-18T23:53:52.225Z,8.90
2022-11-18T23:56:19.990Z,9.07
2022-11-18T23:58:48.354Z,9.27
